createdAt,value
2019-03-13T00:01:46.313Z,2.16
2019-03-13T00:04:16.730Z,2.13
2019-03-13T00:06:48.083Z,2.05
2019-03-13T00:09:18.611Z,2.04
2019-03-13T00:11:49.139Z,1.98
2019-03-13T00:14:19.974Z,1.99
2019-03-13T00:16:50.704Z,1.94
2019-03-13T00:19:21.335Z,2.01
2019-03-13T00:21:52.000Z,1.95
2019-03-13T00:24:23.418Z,1.99
2019-03-13T00:26:55.084Z,1.85
2019-03-13T00:29:25.287Z,1.96
2019-03-13T00:31:59.410Z,1.92
2019-03-13T00:34:28.285Z,1.94
2019-03-13T00:36:59.222Z,1.91
2019-03-13T00:39:30.572Z,1.84
2019-03-13T00:42:00.999Z,1.81
2019-03-13T00:44:31.631Z,1.82
2019-03-13T00:47:02.771Z,1.74
2019-03-13T00:49:33.607Z,1.68
2019-03-13T00:52:05.360Z,1.55
2019-03-13T00:54:36.204Z,1.46
2019-03-13T00:57:07.036Z,1.41
2019-03-13T00:59:37.564Z,1.31
2019-03-13T01:02:10.016Z,1.29
2019-03-13T01:04:42.399Z,1.20
2019-03-13T01:07:14.261Z,1.17
2019-03-13T01:09:46.423Z,1.11
2019-03-13T01:12:16.747Z,1.07
2019-03-13T01:14:47.483Z,0.98
2019-03-13T01:17:18.213Z,1.09
2019-03-13T01:19:49.920Z,1.13
2019-03-13T01:22:22.033Z,1.30
2019-03-13T01:24:52.563Z,1.28
2019-03-13T01:27:24.889Z,1.31
2019-03-13T01:29:55.666Z,1.33
2019-03-13T01:32:37.770Z,1.38
2019-03-13T01:35:10.861Z,1.40
2019-03-13T01:37:43.630Z,1.43
2019-03-13T01:40:13.958Z,1.58
2019-03-13T01:42:44.698Z,1.66
2019-03-13T01:45:15.316Z,1.70
2019-03-13T01:47:47.077Z,1.67
2019-03-13T01:50:17.807Z,1.64
2019-03-13T01:52:48.546Z,1.52
2019-03-13T01:55:19.193Z,1.53
2019-03-13T01:57:50.104Z,1.56
2019-03-13T02:00:20.734Z,1.55
2019-03-13T02:02:51.481Z,1.46
2019-03-13T02:05:23.631Z,1.41
2019-03-13T02:07:58.256Z,1.35
2019-03-13T02:10:29.293Z,1.24
2019-03-13T02:12:59.924Z,1.09
2019-03-13T02:15:33.733Z,1.02
2019-03-13T02:18:04.768Z,1.08
2019-03-13T02:20:35.502Z,0.98
2019-03-13T02:23:06.232Z,0.99
2019-03-13T02:25:37.687Z,0.98
2019-03-13T02:28:08.004Z,1.00
2019-03-13T02:30:38.648Z,0.89
2019-03-13T02:33:09.268Z,0.83
2019-03-13T02:35:40.011Z,0.80
2019-03-13T02:38:10.634Z,0.69
2019-03-13T02:40:42.186Z,0.71
2019-03-13T02:43:13.323Z,0.62
2019-03-13T02:45:43.746Z,0.51
2019-03-13T02:48:14.623Z,0.47
2019-03-13T02:50:46.029Z,0.52
2019-03-13T02:53:16.663Z,0.53
2019-03-13T02:55:47.427Z,0.52
2019-03-13T02:58:20.444Z,0.47
2019-03-13T03:01:04.430Z,0.46
2019-03-13T03:03:36.591Z,0.41
2019-03-13T03:06:07.331Z,0.47
2019-03-13T03:08:39.591Z,0.49
2019-03-13T03:11:10.323Z,0.60
2019-03-13T03:13:41.057Z,0.64
2019-03-13T03:16:11.797Z,0.69
2019-03-13T03:18:42.621Z,0.79
2019-03-13T03:21:13.345Z,0.86
2019-03-13T03:23:45.465Z,0.93
2019-03-13T03:26:18.099Z,0.91
2019-03-13T03:28:49.026Z,0.91
2019-03-13T03:31:22.112Z,0.82
2019-03-13T03:34:01.150Z,0.82
2019-03-13T03:36:31.644Z,0.83
2019-03-13T03:39:04.813Z,0.79
2019-03-13T03:41:35.487Z,0.77
2019-03-13T03:44:06.839Z,0.69
2019-03-13T03:46:39.615Z,0.72
2019-03-13T03:49:11.166Z,0.64
2019-03-13T03:51:42.449Z,0.62
2019-03-13T03:54:15.090Z,0.64
2019-03-13T03:56:46.789Z,0.56
2019-03-13T03:59:17.169Z,0.50
2019-03-13T04:01:47.816Z,0.46
2019-03-13T04:04:18.638Z,0.42
2019-03-13T04:06:49.981Z,0.44
2019-03-13T04:09:20.817Z,0.46
2019-03-13T04:11:52.163Z,0.43
2019-03-13T04:14:22.785Z,0.47
2019-03-13T04:16:53.428Z,0.52
2019-03-13T04:19:24.868Z,0.51
2019-03-13T04:21:55.605Z,0.48
2019-03-13T04:24:27.049Z,0.47
2019-03-13T04:26:57.378Z,0.50
2019-03-13T04:29:28.001Z,0.52
2019-03-13T04:31:58.837Z,0.56
2019-03-13T04:34:30.752Z,0.52
2019-03-13T04:37:01.523Z,0.58
2019-03-13T04:39:32.467Z,0.78
2019-03-13T04:42:03.301Z,0.80
2019-03-13T04:44:34.247Z,0.88
2019-03-13T04:47:04.974Z,0.91
2019-03-13T04:49:35.707Z,1.00
2019-03-13T04:52:07.156Z,1.04
2019-03-13T04:54:38.405Z,1.14
2019-03-13T04:57:08.826Z,1.23
2019-03-13T04:59:39.655Z,1.28
2019-03-13T05:02:11.110Z,1.22
2019-03-13T05:04:42.930Z,1.13
2019-03-13T05:07:14.726Z,1.16
2019-03-13T05:09:47.224Z,1.34
2019-03-13T05:12:18.136Z,1.29
2019-03-13T05:14:48.769Z,1.16
2019-03-13T05:17:20.111Z,1.16
2019-03-13T05:19:50.437Z,1.17
2019-03-13T05:22:22.805Z,1.27
2019-03-13T05:24:54.255Z,1.31
2019-03-13T05:27:25.910Z,1.40
2019-03-13T05:29:58.117Z,1.29
2019-03-13T05:32:30.026Z,1.23
2019-03-13T05:35:00.440Z,1.24
2019-03-13T05:37:32.806Z,1.38
2019-03-13T05:40:05.607Z,1.45
2019-03-13T05:42:37.310Z,1.37
2019-03-13T05:45:08.662Z,1.41
2019-03-13T05:47:39.143Z,1.70
2019-03-13T05:50:10.982Z,2.00
2019-03-13T05:52:41.255Z,2.06
2019-03-13T05:55:11.962Z,2.11
2019-03-13T05:57:42.686Z,2.32
2019-03-13T06:00:15.614Z,2.24
2019-03-13T06:05:36.286Z,2.35
2019-03-13T06:08:07.425Z,2.26
2019-03-13T06:10:37.740Z,2.21
2019-03-13T06:13:09.604Z,2.28
2019-03-13T06:15:40.028Z,2.45
2019-03-13T06:21:04.854Z,2.17
2019-03-13T06:23:36.682Z,2.05
2019-03-13T06:26:07.142Z,2.04
2019-03-13T06:38:28.301Z,2.09
2019-03-13T06:41:08.462Z,2.15
2019-03-13T06:43:39.195Z,2.22
2019-03-13T06:46:09.818Z,2.07
2019-03-13T06:48:40.913Z,2.10
2019-03-13T06:51:29.104Z,2.33
2019-03-13T06:54:16.748Z,2.01
2019-03-13T06:57:05.404Z,2.27
2019-03-13T07:00:00.392Z,2.31
2019-03-13T07:02:49.545Z,2.24
2019-03-13T07:05:47.647Z,2.43
2019-03-13T07:08:55.336Z,2.45
2019-03-13T07:11:43.974Z,2.63
2019-03-13T07:14:33.656Z,2.64
2019-03-13T07:17:31.836Z,2.59
2019-03-13T07:20:21.851Z,2.76
2019-03-13T07:23:26.234Z,3.06
2019-03-13T07:26:04.240Z,3.69
2019-03-13T07:28:52.698Z,4.28
2019-03-13T07:31:28.132Z,4.49
2019-03-13T07:34:03.568Z,4.34
2019-03-13T07:36:36.905Z,4.05
2019-03-13T07:39:21.753Z,4.10
2019-03-13T07:42:11.519Z,4.10
2019-03-13T07:44:46.953Z,4.88
2019-03-13T07:47:36.315Z,5.58
2019-03-13T07:50:28.142Z,5.63
2019-03-13T07:53:03.173Z,5.44
2019-03-13T07:55:35.241Z,4.96
2019-03-13T07:58:23.720Z,5.00
2019-03-13T08:00:56.562Z,5.30
2019-03-13T08:03:45.837Z,5.84
2019-03-13T08:06:33.975Z,5.38
2019-03-13T08:09:08.192Z,5.43
2019-03-13T08:11:44.247Z,5.29
2019-03-13T08:14:24.293Z,5.28
2019-03-13T08:17:03.117Z,5.15
2019-03-13T08:19:40.709Z,5.48
2019-03-13T08:22:29.266Z,5.62
2019-03-13T08:25:18.224Z,6.09
2019-03-13T08:27:54.074Z,6.08
2019-03-13T08:30:35.355Z,5.83
2019-03-13T08:33:25.644Z,6.21
2019-03-13T08:36:16.344Z,6.86
2019-03-13T08:38:54.725Z,7.13
2019-03-13T08:41:36.044Z,7.01
2019-03-13T08:44:17.822Z,7.47
2019-03-13T08:47:06.889Z,7.75
2019-03-13T08:49:41.823Z,7.61
2019-03-13T08:52:14.294Z,7.84
2019-03-13T08:54:46.465Z,7.99
2019-03-13T08:57:21.800Z,8.44
2019-03-13T09:00:09.131Z,9.08
2019-03-13T09:02:59.930Z,9.60
2019-03-13T09:05:44.066Z,9.72
2019-03-13T09:08:34.055Z,9.61
2019-03-13T09:11:12.991Z,10.22
2019-03-13T09:13:52.019Z,9.96
2019-03-13T09:16:30.086Z,9.37
2019-03-13T09:19:02.278Z,9.66
2019-03-13T09:21:37.309Z,9.21
2019-03-13T09:24:18.769Z,8.25
2019-03-13T09:26:53.635Z,8.52
2019-03-13T09:29:39.063Z,8.35
2019-03-13T09:32:17.212Z,8.02
2019-03-13T09:34:49.276Z,7.75
2019-03-13T09:37:21.839Z,7.93
2019-03-13T09:39:56.675Z,8.74
2019-03-13T09:42:41.126Z,9.16
2019-03-13T09:45:19.347Z,9.94
2019-03-13T09:47:51.503Z,10.49
2019-03-13T09:50:27.567Z,11.95
2019-03-13T09:53:06.794Z,11.83
2019-03-13T09:55:55.132Z,11.14
2019-03-13T09:58:46.053Z,9.63
2019-03-13T10:01:34.592Z,8.40
2019-03-13T10:04:06.769Z,7.92
2019-03-13T10:06:44.969Z,7.82
2019-03-13T10:09:23.173Z,8.48
2019-03-13T10:12:11.415Z,8.40
2019-03-13T10:14:50.752Z,8.66
2019-03-13T10:17:23.028Z,8.63
2019-03-13T10:19:56.614Z,7.96
2019-03-13T10:22:47.425Z,8.09
2019-03-13T10:25:29.627Z,7.64
2019-03-13T10:28:03.257Z,7.64
2019-03-13T10:30:35.491Z,7.80
2019-03-13T10:33:07.773Z,8.50
2019-03-13T10:35:57.745Z,9.96
2019-03-13T10:38:48.036Z,12.26
2019-03-13T10:41:36.889Z,12.78
2019-03-13T10:44:28.814Z,12.93
2019-03-13T10:47:00.989Z,11.20
2019-03-13T10:49:36.008Z,9.76
2019-03-13T10:52:20.267Z,8.69
2019-03-13T10:55:08.211Z,9.42
2019-03-13T10:57:40.375Z,13.38
2019-03-13T11:00:16.360Z,13.88
2019-03-13T11:02:50.984Z,11.39
2019-03-13T11:05:23.986Z,9.48
2019-03-13T11:07:56.401Z,8.46
2019-03-13T11:10:31.454Z,7.73
2019-03-13T11:13:15.383Z,7.54
2019-03-13T11:16:05.772Z,7.48
2019-03-13T11:18:51.670Z,7.75
2019-03-13T11:21:27.527Z,7.29
2019-03-13T11:24:03.479Z,7.21
2019-03-13T11:26:41.580Z,7.63
2019-03-13T11:29:22.354Z,7.79
2019-03-13T11:32:06.445Z,8.16
2019-03-13T11:35:10.024Z,8.26
2019-03-13T11:38:14.573Z,8.15
2019-03-13T11:41:33.224Z,8.69
2019-03-13T11:44:32.119Z,9.28
2019-03-13T11:47:17.556Z,9.83
2019-03-13T11:50:06.565Z,12.67
2019-03-13T11:52:40.007Z,14.41
2019-03-13T11:55:20.726Z,16.87
2019-03-13T11:58:06.059Z,17.28
2019-03-13T12:00:54.707Z,16.67
2019-03-13T12:03:33.728Z,17.03
2019-03-13T12:06:09.166Z,11.77
2019-03-13T12:08:47.485Z,9.63
2019-03-13T12:11:25.978Z,9.52
2019-03-13T12:14:01.436Z,9.78
2019-03-13T12:16:34.729Z,8.96
2019-03-13T12:19:09.263Z,8.40
2019-03-13T12:21:44.483Z,8.23
2019-03-13T12:24:34.567Z,8.43
2019-03-13T12:27:23.534Z,8.71
2019-03-13T12:30:07.572Z,10.76
2019-03-13T12:32:39.362Z,9.28
2019-03-13T12:35:29.730Z,8.28
2019-03-13T12:38:05.594Z,9.99
2019-03-13T12:40:54.332Z,9.41
2019-03-13T12:43:27.114Z,9.22
2019-03-13T12:46:16.378Z,8.71
2019-03-13T12:48:51.516Z,8.95
2019-03-13T12:51:23.689Z,8.73
2019-03-13T12:53:59.737Z,11.20
2019-03-13T12:56:37.847Z,15.23
2019-03-13T12:59:11.357Z,17.05
2019-03-13T13:02:00.842Z,19.08
2019-03-13T13:04:37.182Z,17.64
2019-03-13T13:07:10.834Z,14.71
2019-03-13T13:09:58.616Z,12.80
2019-03-13T13:12:31.905Z,12.08
2019-03-13T13:15:07.438Z,16.54
2019-03-13T13:17:56.167Z,18.92
2019-03-13T13:20:29.602Z,19.07
2019-03-13T13:23:01.263Z,18.56
2019-03-13T13:25:31.686Z,18.12
2019-03-13T13:28:02.418Z,18.00
2019-03-13T13:30:34.797Z,17.14
2019-03-13T13:33:07.041Z,17.18
2019-03-13T13:35:39.855Z,16.63
2019-03-13T13:38:10.985Z,16.19
2019-03-13T13:40:41.654Z,16.55
2019-03-13T13:43:13.713Z,15.47
2019-03-13T13:45:47.109Z,16.42
2019-03-13T13:48:17.499Z,16.21
2019-03-13T13:50:49.275Z,16.54
2019-03-13T13:53:20.490Z,16.56
2019-03-13T13:55:51.026Z,14.10
2019-03-13T13:58:22.052Z,10.42
2019-03-13T14:00:53.092Z,8.60
2019-03-13T14:03:23.320Z,7.76
2019-03-13T14:05:57.128Z,10.30
2019-03-13T14:08:29.201Z,13.12
2019-03-13T14:11:00.049Z,14.43
2019-03-13T14:13:32.399Z,15.69
2019-03-13T14:16:03.128Z,15.98
2019-03-13T14:18:34.475Z,15.48
2019-03-13T14:21:05.516Z,13.28
2019-03-13T14:23:36.354Z,12.00
2019-03-13T14:26:07.082Z,9.45
2019-03-13T14:28:38.115Z,8.05
2019-03-13T14:31:08.439Z,8.03
2019-03-13T14:33:39.176Z,10.30
2019-03-13T14:36:11.542Z,12.00
2019-03-13T14:38:42.279Z,12.06
2019-03-13T14:41:13.025Z,12.82
2019-03-13T14:43:43.642Z,10.87
2019-03-13T14:46:13.965Z,8.50
2019-03-13T14:48:44.489Z,7.30
2019-03-13T14:51:15.838Z,6.67
2019-03-13T14:53:46.466Z,6.35
2019-03-13T14:56:16.999Z,6.14
2019-03-13T14:58:48.146Z,6.07
2019-03-13T15:01:19.383Z,6.12
2019-03-13T15:03:49.911Z,5.89
2019-03-13T15:06:20.549Z,5.88
2019-03-13T15:08:51.065Z,5.76
2019-03-13T15:11:21.509Z,5.50
2019-03-13T15:13:52.537Z,5.52
2019-03-13T15:16:24.306Z,6.45
2019-03-13T15:18:55.228Z,6.42
2019-03-13T15:21:26.996Z,5.88
2019-03-13T15:23:58.626Z,5.58
2019-03-13T15:26:28.966Z,5.48
2019-03-13T15:29:00.613Z,5.26
2019-03-13T15:31:31.677Z,4.85
2019-03-13T15:34:02.592Z,4.70
2019-03-13T15:36:33.233Z,4.77
2019-03-13T15:39:06.595Z,4.89
2019-03-13T15:41:38.616Z,4.88
2019-03-13T15:44:09.729Z,4.59
2019-03-13T15:46:40.766Z,4.70
2019-03-13T15:49:16.700Z,4.69
2019-03-13T15:51:48.729Z,4.56
2019-03-13T15:54:19.625Z,4.53
2019-03-13T15:56:50.969Z,4.54
2019-03-13T15:59:21.492Z,4.51
2019-03-13T16:01:55.549Z,4.39
2019-03-13T16:04:25.931Z,4.19
2019-03-13T16:06:56.661Z,4.04
2019-03-13T16:09:27.715Z,4.08
2019-03-13T16:11:58.543Z,4.15
2019-03-13T16:14:29.262Z,4.12
2019-03-13T16:17:00.001Z,3.92
2019-03-13T16:19:32.778Z,3.74
2019-03-13T16:22:04.664Z,3.78
2019-03-13T16:24:36.902Z,3.70
2019-03-13T16:27:07.952Z,3.68
2019-03-13T16:29:38.676Z,3.56
2019-03-13T16:32:12.590Z,3.51
2019-03-13T16:34:43.627Z,3.56
2019-03-13T16:37:14.871Z,3.32
2019-03-13T16:39:45.294Z,3.16
2019-03-13T16:42:17.251Z,3.17
2019-03-13T16:44:47.586Z,3.13
2019-03-13T16:47:19.645Z,3.09
2019-03-13T16:49:50.063Z,3.10
2019-03-13T16:52:20.804Z,3.00
2019-03-13T16:54:52.247Z,3.00
2019-03-13T16:57:23.020Z,2.95
2019-03-13T17:00:00.571Z,2.85
2019-03-13T17:02:26.081Z,2.82
2019-03-13T17:04:56.415Z,2.68
2019-03-13T17:07:28.584Z,2.51
2019-03-13T17:09:59.110Z,2.47
2019-03-13T17:12:30.951Z,2.44
2019-03-13T17:15:01.524Z,2.50
2019-03-13T17:17:34.606Z,2.45
2019-03-13T17:20:08.488Z,2.35
2019-03-13T17:22:39.313Z,2.30
2019-03-13T17:25:13.210Z,2.32
2019-03-13T17:27:43.541Z,2.31
2019-03-13T17:30:19.506Z,2.17
2019-03-13T17:32:52.384Z,2.16
2019-03-13T17:35:25.065Z,2.23
2019-03-13T17:37:57.039Z,2.22
2019-03-13T17:40:32.124Z,2.25
2019-03-13T17:43:02.408Z,2.26
2019-03-13T17:45:33.951Z,2.19
2019-03-13T17:48:06.090Z,2.07
2019-03-13T17:50:38.161Z,1.96
2019-03-13T17:53:08.894Z,1.92
2019-03-13T17:55:40.138Z,1.97
2019-03-13T17:58:10.871Z,1.99
2019-03-13T18:00:52.889Z,1.91
2019-03-13T18:03:24.773Z,1.82
2019-03-13T18:05:55.258Z,1.70
2019-03-13T18:08:26.289Z,1.85
2019-03-13T18:10:59.454Z,1.84
2019-03-13T18:13:29.809Z,1.76
2019-03-13T18:16:00.433Z,1.74
2019-03-13T18:18:31.061Z,1.73
2019-03-13T18:21:01.665Z,1.70
2019-03-13T18:23:32.630Z,1.63
2019-03-13T18:26:03.379Z,1.67
2019-03-13T18:28:34.101Z,1.66
2019-03-13T18:31:04.730Z,1.58
2019-03-13T18:33:44.594Z,1.54
2019-03-13T18:36:15.718Z,1.59
2019-03-13T18:38:46.554Z,1.59
2019-03-13T18:41:18.918Z,1.52
2019-03-13T18:43:49.343Z,1.58
2019-03-13T18:46:21.007Z,1.60
2019-03-13T18:48:51.322Z,1.49
2019-03-13T18:51:22.270Z,1.46
2019-03-13T18:53:53.502Z,1.45
2019-03-13T18:56:26.599Z,1.39
2019-03-13T18:58:59.894Z,1.45
2019-03-13T19:01:30.931Z,1.45
2019-03-13T19:04:02.426Z,1.44
2019-03-13T19:06:34.437Z,1.49
2019-03-13T19:09:06.008Z,1.45
2019-03-13T19:11:36.852Z,1.39
2019-03-13T19:14:07.359Z,1.36
2019-03-13T19:16:37.689Z,1.27
2019-03-13T19:19:09.635Z,1.29
2019-03-13T19:21:40.579Z,1.28
2019-03-13T19:24:12.433Z,1.29
2019-03-13T19:26:43.092Z,1.27
2019-03-13T19:29:14.106Z,1.24
2019-03-13T19:31:44.841Z,1.17
2019-03-13T19:34:15.569Z,1.13
2019-03-13T19:36:47.229Z,1.09
2019-03-13T19:39:18.360Z,0.95
2019-03-13T19:41:48.991Z,0.98
2019-03-13T19:44:19.731Z,0.91
2019-03-13T19:46:51.380Z,0.82
2019-03-13T19:49:23.037Z,0.74
2019-03-13T19:51:54.077Z,0.77
2019-03-13T19:54:29.620Z,0.71
2019-03-13T19:56:59.975Z,0.63
2019-03-13T19:59:30.464Z,0.59
2019-03-13T20:02:02.220Z,0.63
2019-03-13T20:04:33.062Z,0.70
2019-03-13T20:07:04.830Z,0.69
2019-03-13T20:09:35.239Z,0.73
2019-03-13T20:12:05.980Z,0.69
2019-03-13T20:14:36.808Z,0.62
2019-03-13T20:17:07.544Z,0.62
2019-03-13T20:19:38.793Z,0.59
2019-03-13T20:22:11.674Z,0.48
2019-03-13T20:24:42.509Z,0.49
2019-03-13T20:27:14.465Z,0.42
2019-03-13T20:29:45.201Z,0.33
2019-03-13T20:32:17.256Z,0.32
2019-03-13T20:34:48.837Z,0.37
2019-03-13T20:37:20.884Z,0.38
2019-03-13T20:39:53.046Z,0.27
2019-03-13T20:42:23.975Z,0.24
2019-03-13T20:44:56.050Z,0.22
2019-03-13T20:47:26.466Z,0.20
2019-03-13T20:49:57.511Z,0.17
2019-03-13T20:52:28.954Z,0.09
2019-03-13T20:54:59.175Z,0.03
2019-03-13T20:57:29.916Z,-0.07
2019-03-13T21:00:00.545Z,-0.07
2019-03-13T21:02:31.177Z,-0.03
2019-03-13T21:05:02.718Z,-0.02
2019-03-13T21:07:33.350Z,-0.05
2019-03-13T21:10:05.243Z,-0.09
2019-03-13T21:12:36.665Z,-0.15
2019-03-13T21:15:13.335Z,-0.16
2019-03-13T21:17:44.886Z,-0.16
2019-03-13T21:20:16.743Z,-0.07
2019-03-13T21:22:46.966Z,-0.07
2019-03-13T21:25:19.844Z,-0.13
2019-03-13T21:27:50.424Z,-0.12
2019-03-13T21:30:27.257Z,-0.20
2019-03-13T21:32:58.199Z,-0.26
2019-03-13T21:35:30.355Z,-0.27
2019-03-13T21:38:00.811Z,-0.33
2019-03-13T21:40:32.477Z,-0.36
2019-03-13T21:43:03.556Z,-0.35
2019-03-13T21:45:41.211Z,-0.36
2019-03-13T21:48:07.195Z,-0.38
2019-03-13T21:50:38.738Z,-0.47
2019-03-13T21:53:08.967Z,-0.47
2019-03-13T21:55:39.697Z,-0.42
2019-03-13T21:58:10.534Z,-0.54
2019-03-13T22:00:42.795Z,-0.60
2019-03-13T22:03:13.332Z,-0.66
2019-03-13T22:05:44.268Z,-0.73
2019-03-13T22:08:15.608Z,-0.73
2019-03-13T22:10:47.062Z,-0.79
2019-03-13T22:13:18.128Z,-0.82
2019-03-13T22:15:49.961Z,-0.82
2019-03-13T22:18:20.663Z,-0.80
2019-03-13T22:20:51.316Z,-0.81
2019-03-13T22:23:38.537Z,-0.84
2019-03-13T22:26:27.802Z,-0.90
2019-03-13T22:28:58.443Z,-0.91
2019-03-13T22:31:29.170Z,-0.96
2019-03-13T22:33:59.487Z,-1.07
2019-03-13T22:36:31.143Z,-1.08
2019-03-13T22:39:02.571Z,-0.94
2019-03-13T22:41:36.572Z,-0.97
2019-03-13T22:44:05.897Z,-0.94
2019-03-13T22:46:36.129Z,-1.03
2019-03-13T22:49:06.856Z,-1.06
2019-03-13T22:51:37.897Z,-1.10
2019-03-13T22:54:10.475Z,-1.15
2019-03-13T22:56:41.305Z,-1.16
2019-03-13T22:59:13.468Z,-1.17
2019-03-13T23:01:46.656Z,-1.17
2019-03-13T23:04:17.499Z,-1.21
2019-03-13T23:06:48.022Z,-1.26
2019-03-13T23:09:19.170Z,-1.26
2019-03-13T23:11:51.224Z,-1.27
2019-03-13T23:14:21.554Z,-1.24
2019-03-13T23:16:52.280Z,-1.27
2019-03-13T23:19:23.528Z,-1.33
2019-03-13T23:21:53.854Z,-1.29
2019-03-13T23:24:24.177Z,-1.26
2019-03-13T23:26:55.254Z,-1.34
2019-03-13T23:29:25.948Z,-1.32
2019-03-13T23:31:56.364Z,-1.34
2019-03-13T23:34:27.030Z,-1.29
2019-03-13T23:36:58.448Z,-1.34
2019-03-13T23:39:28.878Z,-1.45
2019-03-13T23:41:59.608Z,-1.47
2019-03-13T23:44:30.240Z,-1.49
2019-03-13T23:47:00.966Z,-1.37
2019-03-13T23:49:33.855Z,-1.42
2019-03-13T23:52:04.688Z,-1.51
2019-03-13T23:54:36.467Z,-1.47
2019-03-13T23:57:06.952Z,-1.48
2019-03-13T23:59:37.497Z,-1.60
